Time;durP1;ratioP1;P1;durP2;ratioP2;P2;SDS_P1;SDS_P2;PMS_P1;PMS_P2;Temp;Humidity;BMP_temperature;BMP_pressure;BME280_temperature;BME280_humidity;BME280_pressure;Samples;Min_cycle;Max_cycle;Signal;HPM_P1;HPM_P2
2023/10/01 00:01:40;;;;;;;7.25;3.60;;;13.90;99.90;;;;;;4844423;29;20190;-62
2023/10/01 00:04:07;;;;;;;8.57;4.10;;;13.90;99.90;;;;;;4843970;29;20722;-62
2023/10/01 00:06:36;;;;;;;5.70;3.63;;;13.90;99.90;;;;;;4827631;29;20284;-63
2023/10/01 00:09:05;;;;;;;7.68;4.22;;;13.80;99.90;;;;;;4843838;29;20585;-63
2023/10/01 00:11:37;;;;;;;5.75;3.92;;;13.80;99.90;;;;;;4844147;29;20183;-63
2023/10/01 00:14:06;;;;;;;5.68;3.22;;;13.80;99.90;;;;;;4844093;29;20179;-62
2023/10/01 00:16:32;;;;;;;6.90;3.95;;;13.80;99.90;;;;;;4843834;29;20648;-62
2023/10/01 00:18:59;;;;;;;6.00;3.80;;;13.80;99.90;;;;;;4843703;29;20218;-63
2023/10/01 00:21:27;;;;;;;7.00;3.78;;;13.80;99.90;;;;;;4843643;29;20231;-62
2023/10/01 00:23:54;;;;;;;6.65;3.88;;;13.80;99.90;;;;;;4843871;29;20186;-63
2023/10/01 00:26:20;;;;;;;6.53;3.88;;;13.80;99.90;;;;;;4843910;29;20191;-63
2023/10/01 00:28:46;;;;;;;8.18;3.90;;;13.80;99.90;;;;;;4843512;29;20265;-63
2023/10/01 00:31:11;;;;;;;5.10;3.53;;;13.80;99.90;;;;;;4843739;29;20274;-62
2023/10/01 00:33:37;;;;;;;5.47;3.63;;;13.80;99.90;;;;;;4843573;29;20185;-62
2023/10/01 00:36:03;;;;;;;10.90;4.78;;;13.70;99.90;;;;;;4843410;29;20222;-62
2023/10/01 00:38:29;;;;;;;5.30;3.50;;;13.70;99.90;;;;;;4827322;29;20222;-61
2023/10/01 00:40:55;;;;;;;6.95;3.88;;;13.80;99.90;;;;;;4843524;29;20190;-62
2023/10/01 00:43:31;;;;;;;5.72;3.75;;;13.70;99.90;;;;;;4843380;29;20316;-62
2023/10/01 00:45:58;;;;;;;6.55;3.65;;;13.80;99.90;;;;;;4843352;29;20187;-62
2023/10/01 00:48:24;;;;;;;8.77;4.05;;;13.70;99.90;;;;;;4843251;29;20218;-62
2023/10/01 00:50:52;;;;;;;7.05;3.53;;;13.70;99.90;;;;;;4843157;29;20235;-62
2023/10/01 00:53:19;;;;;;;5.90;3.92;;;13.70;99.90;;;;;;4843330;29;20183;-62
2023/10/01 00:55:45;;;;;;;6.05;3.40;;;13.70;99.90;;;;;;4843196;29;20223;-63
2023/10/01 00:58:10;;;;;;;8.10;3.88;;;13.70;99.90;;;;;;4843095;29;20317;-62
2023/10/01 01:00:37;;;;;;;6.13;3.50;;;13.70;99.90;;;;;;4843181;29;20194;-64
2023/10/01 01:05:37;;;;;;;4.38;3.25;;;13.80;99.90;;;;;;4843224;29;20265;-62
2023/10/01 01:08:09;;;;;;;9.10;4.38;;;13.70;99.90;;;;;;4843142;29;20191;-63
2023/10/01 01:10:40;;;;;;;6.63;3.75;;;13.70;99.90;;;;;;4843340;29;20174;-63
2023/10/01 01:13:06;;;;;;;6.65;3.60;;;13.70;99.90;;;;;;4842923;29;20179;-62
2023/10/01 01:15:34;;;;;;;8.10;4.13;;;13.70;99.90;;;;;;4842788;29;20186;-62
2023/10/01 01:18:07;;;;;;;4.47;3.33;;;13.70;99.90;;;;;;4826600;29;20249;-63
2023/10/01 01:20:36;;;;;;;6.38;4.05;;;13.70;99.90;;;;;;4842918;29;20167;-62
2023/10/01 01:23:04;;;;;;;5.60;3.70;;;13.80;99.90;;;;;;4842933;29;20190;-62
2023/10/01 01:25:32;;;;;;;7.10;4.05;;;13.70;99.90;;;;;;4842802;29;20182;-62
2023/10/01 01:27:58;;;;;;;6.05;4.03;;;13.70;99.90;;;;;;4842694;29;20662;-62
2023/10/01 01:30:29;;;;;;;6.53;3.75;;;13.70;99.90;;;;;;4842726;29;20179;-63
2023/10/01 01:32:55;;;;;;;6.07;4.13;;;13.70;99.90;;;;;;4842848;29;20214;-62
2023/10/01 01:35:27;;;;;;;6.60;4.00;;;13.70;99.90;;;;;;4843092;29;20179;-62
2023/10/01 01:37:55;;;;;;;8.30;4.13;;;13.70;99.90;;;;;;4842516;29;20568;-61
2023/10/01 01:40:24;;;;;;;7.25;3.67;;;13.70;99.90;;;;;;4842097;29;20194;-63
2023/10/01 01:42:56;;;;;;;7.03;4.13;;;13.80;99.90;;;;;;4842471;29;20182;-62
2023/10/01 01:45:25;;;;;;;5.45;3.67;;;13.80;99.90;;;;;;4842706;29;20199;-62
2023/10/01 01:47:52;;;;;;;8.02;4.07;;;13.80;99.90;;;;;;4842547;29;20186;-62
2023/10/01 01:50:23;;;;;;;6.50;4.47;;;13.80;99.90;;;;;;4842488;29;20646;-63
2023/10/01 01:52:49;;;;;;;5.57;3.65;;;13.80;99.90;;;;;;4842644;29;20202;-62
2023/10/01 01:55:23;;;;;;;5.60;3.88;;;13.70;99.90;;;;;;4842307;29;20679;-63
2023/10/01 01:58:10;;;;;;;6.22;3.80;;;13.80;99.90;;;;;;4842562;29;20225;-63
2023/10/01 02:00:38;;;;;;;6.97;3.90;;;13.80;99.90;;;;;;4842645;29;20186;-62
2023/10/01 02:03:10;;;;;;;7.28;4.20;;;13.70;99.90;;;;;;4842424;29;20186;-63
2023/10/01 02:05:42;;;;;;;6.85;4.00;;;13.70;99.90;;;;;;4842276;29;20232;-62
2023/10/01 02:10:59;;;;;;;6.93;3.90;;;13.70;99.90;;;;;;4842844;29;20197;-62
2023/10/01 02:13:26;;;;;;;6.07;4.18;;;13.60;99.90;;;;;;4842331;29;20211;-62
2023/10/01 02:15:53;;;;;;;6.88;4.50;;;13.60;99.90;;;;;;4842238;29;20656;-61
2023/10/01 02:18:20;;;;;;;7.72;3.88;;;13.60;99.90;;;;;;4842027;29;20227;-62
2023/10/01 02:20:56;;;;;;;7.63;4.13;;;13.60;99.90;;;;;;4842161;29;20179;-62
2023/10/01 02:23:26;;;;;;;7.03;4.00;;;13.60;99.90;;;;;;4842329;29;20278;-62
2023/10/01 02:25:57;;;;;;;6.07;4.40;;;13.60;99.90;;;;;;4842226;29;20238;-62
2023/10/01 02:28:25;;;;;;;6.53;4.05;;;13.60;99.90;;;;;;4842103;29;20656;-62
2023/10/01 02:30:59;;;;;;;7.90;4.22;;;13.50;99.90;;;;;;4842058;29;20251;-63
2023/10/01 02:33:25;;;;;;;8.45;4.43;;;13.50;99.90;;;;;;4842251;29;20187;-62
2023/10/01 02:35:55;;;;;;;6.70;4.40;;;13.50;99.90;;;;;;4842165;29;20221;-63
2023/10/01 02:38:36;;;;;;;6.28;4.03;;;13.50;99.90;;;;;;4842045;29;20222;-63
2023/10/01 02:41:07;;;;;;;6.80;4.40;;;13.60;99.90;;;;;;4842133;29;20182;-62
2023/10/01 02:43:34;;;;;;;7.55;4.72;;;13.50;99.90;;;;;;4842225;29;20179;-62
2023/10/01 02:46:26;;;;;;;7.80;4.70;;;13.50;99.90;;;;;;4842173;29;20175;-62
2023/10/01 02:48:59;;;;;;;7.78;4.43;;;13.50;99.90;;;;;;4842069;29;20210;-62
2023/10/01 02:51:32;;;;;;;7.18;4.22;;;13.40;99.90;;;;;;4844279;29;20327;-62
2023/10/01 02:54:05;;;;;;;5.60;4.18;;;13.50;99.90;;;;;;4845662;29;20183;-62
2023/10/01 02:56:37;;;;;;;7.53;5.00;;;13.50;99.90;;;;;;4845425;29;20684;-63
2023/10/01 02:59:13;;;;;;;9.95;4.78;;;13.60;99.90;;;;;;4845215;29;20706;-63
2023/10/01 03:01:45;;;;;;;8.25;4.80;;;13.50;99.90;;;;;;4845343;29;20272;-62
2023/10/01 03:04:15;;;;;;;7.47;4.28;;;13.60;99.90;;;;;;4845042;29;20183;-63
2023/10/01 03:06:47;;;;;;;10.25;5.18;;;13.50;99.90;;;;;;4845200;29;20716;-61
2023/10/01 03:09:28;;;;;;;6.40;5.00;;;13.50;99.90;;;;;;4829642;29;20183;-63
2023/10/01 03:12:23;;;;;;;10.10;4.63;;;13.50;99.90;;;;;;4844962;29;20187;-62
2023/10/01 03:14:43;;;;;;;7.28;4.80;;;13.50;99.90;;;;;;4844736;29;20186;-62
2023/10/01 03:17:09;;;;;;;6.72;4.65;;;13.60;99.90;;;;;;4844904;29;20187;-62
2023/10/01 03:19:36;;;;;;;7.38;4.70;;;13.60;99.90;;;;;;4844908;29;20187;-63
2023/10/01 03:24:39;;;;;;;7.07;4.72;;;13.60;99.90;;;;;;4844894;29;20574;-62
2023/10/01 03:27:18;;;;;;;7.13;5.00;;;13.60;99.90;;;;;;4844736;29;20518;-61
2023/10/01 03:29:45;;;;;;;7.68;4.78;;;13.60;99.90;;;;;;4844791;29;20219;-62
2023/10/01 03:35:04;;;;;;;8.07;4.88;;;13.50;99.90;;;;;;4844696;29;20193;-62
2023/10/01 03:37:38;;;;;;;7.75;4.97;;;13.50;99.90;;;;;;4844445;29;20210;-62
2023/10/01 03:40:35;;;;;;;7.60;4.65;;;13.50;99.90;;;;;;4844655;29;20586;-61
2023/10/01 03:42:54;;;;;;;8.95;5.22;;;13.50;99.90;;;;;;4843916;29;20195;-63
2023/10/01 03:47:58;;;;;;;9.20;5.13;;;13.50;99.90;;;;;;4844373;29;20186;-62
2023/10/01 03:50:25;;;;;;;10.00;5.57;;;13.50;99.90;;;;;;4844286;29;20273;-62
2023/10/01 03:52:54;;;;;;;9.77;4.95;;;13.50;99.90;;;;;;4844400;29;20641;-62
2023/10/01 03:55:27;;;;;;;8.93;5.45;;;13.50;99.90;;;;;;4844320;29;20182;-62
2023/10/01 03:58:38;;;;;;;7.20;5.35;;;13.50;99.90;;;;;;4844211;29;20207;-62
2023/10/01 04:03:05;;;;;;;7.50;5.43;;;13.40;99.90;;;;;;4843820;29;20240;-62
2023/10/01 04:05:31;;;;;;;8.25;6.00;;;13.50;99.90;;;;;;4843942;29;20231;-62
2023/10/01 04:08:07;;;;;;;7.72;5.63;;;13.50;99.90;;;;;;4844111;29;20182;-62
2023/10/01 04:10:35;;;;;;;9.93;6.13;;;13.50;99.90;;;;;;4844074;29;20180;-63
2023/10/01 04:13:13;;;;;;;9.55;6.28;;;13.50;99.90;;;;;;4843811;29;20186;-62
2023/10/01 04:15:46;;;;;;;9.10;5.88;;;13.50;99.90;;;;;;4844008;29;20179;-62
2023/10/01 04:20:48;;;;;;;8.27;5.80;;;13.50;99.90;;;;;;4843880;29;20187;-62
2023/10/01 04:23:43;;;;;;;9.57;6.35;;;13.50;99.90;;;;;;4843758;29;20179;-62
2023/10/01 04:26:13;;;;;;;9.25;5.80;;;13.50;99.90;;;;;;4843267;29;20709;-62
2023/10/01 04:28:46;;;;;;;8.90;6.25;;;13.60;99.90;;;;;;4843734;29;20287;-62
2023/10/01 04:31:42;;;;;;;11.00;6.57;;;13.60;99.90;;;;;;4843723;29;20186;-62
2023/10/01 04:34:10;;;;;;;10.38;6.65;;;13.60;99.90;;;;;;4843358;29;20197;-62
2023/10/01 04:36:40;;;;;;;9.77;6.38;;;13.60;99.90;;;;;;4843699;29;20191;-63
2023/10/01 04:39:06;;;;;;;9.05;5.38;;;13.60;99.90;;;;;;4843482;29;20218;-62
2023/10/01 04:41:32;;;;;;;9.65;6.45;;;13.60;99.90;;;;;;4843501;29;20605;-62
2023/10/01 04:44:07;;;;;;;11.02;6.38;;;13.60;99.90;;;;;;4843407;29;20266;-62
2023/10/01 04:46:40;;;;;;;10.13;6.10;;;13.60;99.90;;;;;;4843560;29;20670;-63
2023/10/01 04:49:31;;;;;;;7.88;6.10;;;13.60;99.90;;;;;;4843400;29;20202;-62
2023/10/01 04:52:09;;;;;;;10.30;6.10;;;13.60;99.90;;;;;;4843216;29;20186;-62
2023/10/01 04:54:37;;;;;;;9.45;6.22;;;13.50;99.90;;;;;;4843162;29;20201;-62
2023/10/01 04:57:03;;;;;;;9.38;6.10;;;13.50;99.90;;;;;;4843189;29;20231;-63
2023/10/01 04:59:29;;;;;;;8.52;6.32;;;13.50;99.90;;;;;;4843229;29;20183;-62
2023/10/01 05:01:58;;;;;;;9.15;6.07;;;13.50;99.90;;;;;;4843248;29;20185;-62
2023/10/01 05:04:26;;;;;;;10.30;6.45;;;13.60;99.90;;;;;;4842885;29;20198;-62
2023/10/01 05:07:04;;;;;;;8.98;6.10;;;13.60;99.90;;;;;;4842996;29;20261;-61
2023/10/01 05:09:36;;;;;;;9.18;5.75;;;13.60;99.90;;;;;;4843347;29;20963;-62
2023/10/01 05:12:03;;;;;;;8.10;6.07;;;13.60;99.90;;;;;;4843081;29;20699;-62
2023/10/01 05:14:29;;;;;;;8.63;5.70;;;13.60;99.90;;;;;;4842258;29;20259;-63
2023/10/01 05:16:54;;;;;;;10.40;6.22;;;13.60;99.90;;;;;;4842965;29;20646;-62
2023/10/01 05:19:29;;;;;;;7.82;5.88;;;13.60;99.90;;;;;;4842759;29;20223;-62
2023/10/01 05:21:56;;;;;;;9.35;6.18;;;13.60;99.90;;;;;;4842718;29;20672;-63
2023/10/01 05:24:39;;;;;;;12.40;6.78;;;13.50;99.90;;;;;;4842996;29;20182;-62
2023/10/01 05:27:09;;;;;;;11.30;6.97;;;13.50;99.90;;;;;;4842790;29;20175;-62
2023/10/01 05:29:38;;;;;;;9.35;6.75;;;13.50;99.90;;;;;;4842804;29;20265;-63
2023/10/01 05:32:04;;;;;;;10.48;6.50;;;13.50;99.90;;;;;;4842601;29;20179;-62
2023/10/01 05:34:31;;;;;;;10.32;6.68;;;13.60;99.90;;;;;;4842611;29;20194;-62
2023/10/01 05:37:08;;;;;;;10.27;6.93;;;13.60;99.90;;;;;;4837095;29;20186;-63
2023/10/01 05:39:55;;;;;;;8.88;6.00;;;13.60;99.90;;;;;;4861026;29;20674;-63
2023/10/01 05:42:24;;;;;;;12.60;6.85;;;13.60;99.90;;;;;;4860825;29;20190;-63
2023/10/01 05:44:51;;;;;;;10.32;6.45;;;13.70;99.90;;;;;;4855610;29;20191;-62
2023/10/01 05:47:17;;;;;;;9.18;6.63;;;13.60;99.90;;;;;;4841892;29;20215;-64
2023/10/01 05:49:49;;;;;;;10.10;7.05;;;13.70;99.90;;;;;;4832195;29;20251;-63
2023/10/01 05:52:17;;;;;;;11.27;7.00;;;13.60;99.90;;;;;;4832921;29;20186;-63
2023/10/01 05:54:52;;;;;;;10.10;6.93;;;13.70;99.90;;;;;;4833829;29;20277;-62
2023/10/01 05:57:21;;;;;;;9.63;6.88;;;13.70;99.90;;;;;;4833211;29;20640;-63
2023/10/01 05:59:56;;;;;;;10.25;6.85;;;13.80;99.90;;;;;;4831369;29;20782;-62
2023/10/01 06:03:08;;;;;;;9.20;6.15;;;13.70;99.90;;;;;;4834509;29;20265;-63
2023/10/01 06:05:42;;;;;;;10.68;7.00;;;13.80;99.90;;;;;;4832359;29;20234;-63
2023/10/01 06:08:17;;;;;;;10.50;7.07;;;13.70;99.90;;;;;;4856032;29;20190;-63
2023/10/01 06:11:05;;;;;;;11.07;7.15;;;13.80;99.90;;;;;;4860618;29;20178;-62
2023/10/01 06:13:34;;;;;;;9.07;6.78;;;13.80;99.90;;;;;;4860684;29;20178;-62
2023/10/01 06:16:16;;;;;;;9.77;7.00;;;13.80;99.90;;;;;;4859893;29;20314;-62
2023/10/01 06:18:56;;;;;;;12.23;6.95;;;13.90;99.90;;;;;;4859088;29;20545;-63
2023/10/01 06:21:34;;;;;;;15.90;7.55;;;13.90;99.90;;;;;;4858904;29;20182;-62
2023/10/01 06:24:10;;;;;;;10.02;6.65;;;13.90;99.90;;;;;;4860512;29;20213;-62
2023/10/01 06:26:57;;;;;;;10.57;6.65;;;14.00;99.90;;;;;;4863193;29;20188;-62
2023/10/01 06:29:23;;;;;;;10.15;7.20;;;13.90;99.90;;;;;;4863684;29;20200;-63
2023/10/01 06:31:52;;;;;;;11.60;6.53;;;14.00;99.90;;;;;;4864238;29;20254;-63
2023/10/01 06:34:21;;;;;;;8.95;6.93;;;14.00;99.90;;;;;;4847723;29;20199;-63
2023/10/01 06:36:58;;;;;;;9.85;6.88;;;14.10;99.90;;;;;;4845550;29;20526;-63
2023/10/01 06:39:32;;;;;;;9.23;6.78;;;14.20;99.90;;;;;;4845697;29;20635;-63
2023/10/01 06:44:43;;;;;;;9.52;6.32;;;14.30;99.90;;;;;;4845753;29;20217;-63
2023/10/01 06:47:15;;;;;;;10.90;7.45;;;14.30;99.90;;;;;;4845448;29;20231;-63
2023/10/01 06:49:57;;;;;;;10.70;7.18;;;14.40;99.90;;;;;;4845319;29;20183;-64
2023/10/01 06:52:27;;;;;;;11.32;6.78;;;14.40;99.90;;;;;;4845503;29;20210;-63
2023/10/01 06:54:57;;;;;;;10.90;6.78;;;14.60;99.90;;;;;;4845138;29;20183;-64
2023/10/01 06:57:33;;;;;;;9.45;6.57;;;14.60;99.90;;;;;;4845099;29;20214;-63
2023/10/01 06:59:59;;;;;;;12.15;7.07;;;14.70;99.90;;;;;;4845285;29;20589;-63
2023/10/01 07:02:26;;;;;;;9.88;7.22;;;14.70;99.90;;;;;;4845284;29;20183;-63
2023/10/01 07:04:56;;;;;;;10.52;7.03;;;14.70;99.90;;;;;;4844871;29;20266;-63
2023/10/01 07:07:28;;;;;;;12.60;7.28;;;14.80;99.90;;;;;;4845305;29;20193;-62
2023/10/01 07:09:56;;;;;;;11.13;7.38;;;14.90;99.90;;;;;;4828774;29;20195;-64
2023/10/01 07:12:23;;;;;;;10.20;6.70;;;14.90;99.90;;;;;;4844913;29;20185;-63
2023/10/01 07:14:53;;;;;;;10.55;6.97;;;15.00;99.90;;;;;;4845087;29;20518;-63
2023/10/01 07:17:28;;;;;;;10.13;7.15;;;15.10;99.90;;;;;;4844880;29;20193;-63
2023/10/01 07:20:00;;;;;;;10.30;6.85;;;15.10;99.90;;;;;;4842676;29;20273;-64
2023/10/01 07:22:34;;;;;;;10.85;7.15;;;15.10;99.90;;;;;;4844516;29;20582;-63
2023/10/01 07:25:00;;;;;;;12.32;6.85;;;15.20;99.90;;;;;;4844528;29;20182;-62
2023/10/01 07:27:27;;;;;;;10.23;6.95;;;15.30;99.90;;;;;;4844899;29;20197;-63
2023/10/01 07:29:54;;;;;;;10.98;7.05;;;15.40;99.90;;;;;;4844832;29;20265;-63
2023/10/01 07:32:22;;;;;;;12.18;7.28;;;15.50;99.90;;;;;;4844799;29;20179;-63
2023/10/01 07:34:53;;;;;;;11.50;7.35;;;15.50;99.90;;;;;;4844727;29;20183;-63
2023/10/01 07:37:25;;;;;;;10.65;6.40;;;15.60;99.90;;;;;;4843489;29;20189;-62
2023/10/01 07:39:55;;;;;;;11.77;6.90;;;15.70;99.90;;;;;;4844546;29;20217;-66
2023/10/01 07:42:23;;;;;;;11.23;7.15;;;15.70;99.90;;;;;;4843714;29;20190;-64
2023/10/01 07:44:49;;;;;;;11.10;7.18;;;16.00;99.90;;;;;;4842580;29;20224;-63
2023/10/01 07:47:28;;;;;;;8.57;6.32;;;15.90;99.90;;;;;;4844476;29;20179;-64
2023/10/01 07:50:05;;;;;;;9.73;6.65;;;16.00;99.90;;;;;;4844316;29;20186;-64
2023/10/01 07:52:36;;;;;;;8.15;6.38;;;16.10;99.90;;;;;;4844436;29;20183;-65
2023/10/01 07:55:29;;;;;;;12.80;6.88;;;16.10;99.90;;;;;;4844382;29;20190;-65
2023/10/01 07:57:49;;;;;;;11.13;7.45;;;16.20;99.90;;;;;;4844016;29;20583;-63
2023/10/01 08:00:29;;;;;;;10.57;7.82;;;16.30;99.90;;;;;;4844168;29;20179;-64
2023/10/01 08:05:40;;;;;;;13.77;7.88;;;16.40;99.90;;;;;;4843855;29;20752;-64
2023/10/01 08:08:09;;;;;;;10.48;7.10;;;16.60;99.90;;;;;;4844029;29;20224;-64
2023/10/01 08:10:37;;;;;;;12.82;7.47;;;16.60;99.90;;;;;;4843947;29;20187;-64
2023/10/01 08:13:24;;;;;;;12.35;7.05;;;16.70;99.90;;;;;;4843888;29;20575;-64
2023/10/01 08:16:01;;;;;;;9.80;6.90;;;16.80;99.90;;;;;;4844330;29;20193;-64
2023/10/01 08:18:36;;;;;;;10.63;7.07;;;16.90;99.90;;;;;;4843966;29;20209;-64
2023/10/01 08:21:02;;;;;;;11.90;7.47;;;16.90;99.90;;;;;;4850588;29;20217;-64
2023/10/01 08:23:31;;;;;;;11.55;7.85;;;17.10;99.90;;;;;;4857479;29;20261;-64
2023/10/01 08:26:39;;;;;;;11.40;7.40;;;17.20;99.90;;;;;;4861868;29;20668;-65
2023/10/01 08:28:55;;;;;;;8.80;6.78;;;17.20;99.90;;;;;;4861176;29;20198;-65
2023/10/01 08:31:43;;;;;;;10.95;7.30;;;17.30;99.90;;;;;;4861902;29;20536;-65
2023/10/01 08:34:22;;;;;;;12.23;7.32;;;17.40;99.90;;;;;;4861671;29;20298;-65
2023/10/01 08:36:56;;;;;;;10.75;6.88;;;17.50;99.90;;;;;;4861903;29;20182;-65
2023/10/01 08:40:13;;;;;;;11.15;6.85;;;17.60;99.90;;;;;;4844251;29;20270;-65
2023/10/01 08:42:08;;;;;;;10.05;6.70;;;17.70;99.90;;;;;;4839501;29;20625;-65
2023/10/01 08:45:04;;;;;;;11.38;7.15;;;17.80;99.90;;;;;;4846821;29;20185;-65
2023/10/01 08:47:35;;;;;;;10.63;6.90;;;17.90;99.90;;;;;;4825025;29;20190;-65
2023/10/01 08:52:56;;;;;;;11.50;7.00;;;18.10;99.90;;;;;;4825299;29;20275;-65
2023/10/01 08:56:04;;;;;;;11.80;7.75;;;18.20;99.90;;;;;;4824998;29;20183;-65
2023/10/01 09:01:10;;;;;;;11.43;7.07;;;18.30;99.90;;;;;;4840144;29;20534;-65
2023/10/01 09:03:36;;;;;;;13.02;7.05;;;18.50;99.90;;;;;;4845809;29;20589;-65
2023/10/01 09:06:03;;;;;;;13.23;7.20;;;18.50;99.90;;;;;;4861195;29;20243;-63
2023/10/01 09:08:45;;;;;;;12.55;7.50;;;18.60;99.90;;;;;;4861261;29;20217;-65
2023/10/01 09:11:13;;;;;;;9.38;6.47;;;18.70;99.90;;;;;;4853264;29;20648;-63
2023/10/01 09:16:42;;;;;;;12.40;7.32;;;18.70;99.90;;;;;;4861265;29;20678;-65
2023/10/01 09:21:56;;;;;;;9.95;6.30;;;19.00;99.90;;;;;;4861030;29;20225;-65
2023/10/01 09:24:42;;;;;;;12.18;6.97;;;19.10;99.90;;;;;;4861217;29;20189;-62
2023/10/01 09:27:18;;;;;;;12.63;7.93;;;19.10;99.90;;;;;;4861188;29;20204;-65
2023/10/01 09:29:45;;;;;;;10.95;6.72;;;19.20;99.90;;;;;;4861145;29;20208;-66
2023/10/01 09:32:13;;;;;;;9.85;6.35;;;19.30;99.90;;;;;;4861037;29;20644;-65
2023/10/01 09:34:53;;;;;;;10.77;6.30;;;19.30;99.90;;;;;;4861065;29;20170;-65
2023/10/01 09:37:35;;;;;;;11.88;6.85;;;19.40;99.90;;;;;;4860681;29;20185;-65
2023/10/01 09:42:56;;;;;;;12.50;7.25;;;19.70;99.90;;;;;;4824751;29;20713;-65
2023/10/01 09:45:26;;;;;;;10.98;6.60;;;19.90;99.90;;;;;;4824077;29;20215;-65
2023/10/01 09:48:07;;;;;;;9.45;6.07;;;20.00;99.90;;;;;;4824335;29;20297;-64
2023/10/01 09:50:43;;;;;;;13.45;6.93;;;20.00;99.90;;;;;;4824196;29;20541;-65
2023/10/01 09:53:19;;;;;;;10.23;6.50;;;20.10;99.90;;;;;;4824351;29;20202;-65
2023/10/01 09:55:55;;;;;;;11.57;6.97;;;20.10;99.90;;;;;;4824478;29;20175;-65
2023/10/01 09:58:25;;;;;;;10.70;6.50;;;20.20;99.90;;;;;;4824319;29;20210;-65
2023/10/01 10:01:00;;;;;;;11.98;6.82;;;20.10;99.90;;;;;;4826094;29;20261;-66
2023/10/01 10:03:37;;;;;;;11.43;5.88;;;20.30;99.90;;;;;;4827806;29;20179;-65
2023/10/01 10:06:06;;;;;;;11.02;6.50;;;20.40;99.90;;;;;;4827964;29;20226;-65
2023/10/01 10:08:41;;;;;;;8.98;5.82;;;20.60;99.90;;;;;;4827677;29;20712;-65
2023/10/01 10:11:23;;;;;;;9.40;6.28;;;20.60;99.90;;;;;;4828087;29;20210;-65
2023/10/01 10:13:50;;;;;;;11.95;6.93;;;20.60;99.90;;;;;;4827561;29;20713;-66
2023/10/01 10:16:32;;;;;;;10.13;6.28;;;20.70;99.90;;;;;;4827797;29;20537;-66
2023/10/01 10:19:20;;;;;;;12.82;7.60;;;20.70;99.90;;;;;;4827672;29;20211;-66
2023/10/01 10:24:29;;;;;;;11.20;6.32;;;20.80;99.90;;;;;;4827486;29;20183;-66
2023/10/01 10:27:15;;;;;;;10.90;6.15;;;20.90;99.90;;;;;;4827507;29;20175;-66
2023/10/01 10:29:46;;;;;;;10.25;6.05;;;21.00;99.90;;;;;;4827541;29;20650;-66
2023/10/01 10:32:24;;;;;;;10.70;6.30;;;21.00;99.90;;;;;;4827357;29;20183;-66
2023/10/01 10:35:04;;;;;;;10.02;5.90;;;21.10;99.90;;;;;;4827178;29;20183;-66
2023/10/01 10:37:36;;;;;;;11.38;6.50;;;21.10;99.90;;;;;;4827342;29;20213;-66
2023/10/01 10:40:04;;;;;;;12.50;6.47;;;21.10;99.90;;;;;;4827200;29;20183;-66
2023/10/01 10:42:31;;;;;;;9.60;6.22;;;21.30;99.90;;;;;;4827200;29;20191;-66
2023/10/01 10:45:21;;;;;;;11.60;7.00;;;21.30;99.90;;;;;;4826956;29;20593;-66
2023/10/01 10:48:02;;;;;;;11.05;6.63;;;21.40;99.90;;;;;;4827271;29;20657;-66
2023/10/01 10:50:53;;;;;;;10.63;5.93;;;21.60;99.90;;;;;;4827014;29;20236;-65
2023/10/01 10:53:21;;;;;;;13.13;6.68;;;21.70;99.90;;;;;;4826746;29;20237;-65
2023/10/01 10:55:54;;;;;;;8.65;6.32;;;21.50;99.90;;;;;;4827045;29;20194;-65
2023/10/01 10:58:24;;;;;;;11.57;6.20;;;21.60;99.90;;;;;;4826971;29;20309;-65
2023/10/01 11:00:50;;;;;;;11.55;6.35;;;21.70;99.90;;;;;;4826957;29;20178;-65
2023/10/01 11:03:38;;;;;;;11.77;5.97;;;21.70;99.90;;;;;;4826928;29;20183;-64
2023/10/01 11:06:19;;;;;;;10.25;6.07;;;21.80;99.90;;;;;;4826919;29;20635;-65
2023/10/01 11:08:53;;;;;;;10.85;6.07;;;21.80;99.90;;;;;;4826894;29;20184;-65
2023/10/01 11:11:30;;;;;;;10.63;6.07;;;21.80;99.90;;;;;;4826170;29;20266;-65
2023/10/01 11:14:01;;;;;;;10.50;6.03;;;21.80;99.90;;;;;;4826509;29;20179;-65
2023/10/01 11:16:33;;;;;;;11.40;6.72;;;21.90;99.90;;;;;;4826518;29;20183;-65
2023/10/01 11:19:12;;;;;;;11.35;6.70;;;21.90;99.90;;;;;;4826696;29;20306;-65
2023/10/01 11:21:58;;;;;;;12.45;6.72;;;22.00;99.90;;;;;;4826634;29;20648;-64
2023/10/01 11:24:33;;;;;;;9.73;6.35;;;21.90;99.90;;;;;;4826336;29;20270;-64
2023/10/01 11:27:43;;;;;;;11.73;7.30;;;22.00;99.90;;;;;;4826333;29;20179;-66
2023/10/01 11:30:16;;;;;;;11.90;6.57;;;22.00;99.90;;;;;;4826578;29;20186;-68
2023/10/01 11:32:58;;;;;;;10.27;6.35;;;22.00;99.90;;;;;;4826374;29;20191;-65
2023/10/01 11:35:34;;;;;;;11.45;6.32;;;22.10;99.90;;;;;;4826496;29;20179;-64
2023/10/01 11:38:14;;;;;;;11.75;6.72;;;22.20;99.90;;;;;;4826395;29;20573;-65
2023/10/01 11:43:27;;;;;;;9.43;6.45;;;22.30;99.90;;;;;;4826411;29;20266;-65
2023/10/01 11:46:34;;;;;;;10.73;6.25;;;22.50;99.90;;;;;;4825989;29;20645;-65
2023/10/01 11:49:06;;;;;;;10.38;6.70;;;22.50;99.90;;;;;;4787843;30;20184;-65
2023/10/01 11:51:45;;;;;;;10.70;7.00;;;22.60;99.90;;;;;;4787942;30;20241;-67
2023/10/01 11:54:21;;;;;;;11.90;6.45;;;22.50;99.90;;;;;;4811371;29;20226;-67
2023/10/01 11:57:51;;;;;;;11.70;6.55;;;22.60;99.90;;;;;;4826084;29;20182;-64
2023/10/01 11:59:42;;;;;;;9.07;6.00;;;22.60;99.90;;;;;;4815994;29;20227;-65
2023/10/01 12:02:20;;;;;;;10.38;6.45;;;22.50;99.90;;;;;;4826126;29;20182;-65
2023/10/01 12:05:00;;;;;;;12.38;6.78;;;22.50;99.90;;;;;;4825833;29;20318;-64
2023/10/01 12:07:39;;;;;;;10.55;6.53;;;22.60;99.90;;;;;;4825855;29;20187;-65
2023/10/01 12:10:07;;;;;;;10.60;6.85;;;22.60;99.90;;;;;;4825816;29;20194;-65
2023/10/01 12:12:39;;;;;;;12.32;6.63;;;22.70;99.90;;;;;;4825643;29;20684;-66
2023/10/01 12:17:51;;;;;;;12.75;7.22;;;22.70;99.90;;;;;;4825690;29;20789;-66
2023/10/01 12:20:23;;;;;;;13.13;7.03;;;22.70;99.90;;;;;;4825707;29;20183;-66
2023/10/01 12:23:11;;;;;;;10.68;6.35;;;22.80;99.90;;;;;;4825195;29;20645;-66
2023/10/01 12:25:47;;;;;;;11.45;6.50;;;22.70;99.90;;;;;;4825132;29;20252;-66
2023/10/01 12:28:24;;;;;;;11.80;6.65;;;22.80;99.90;;;;;;4825555;29;20190;-66
2023/10/01 12:31:01;;;;;;;9.82;6.10;;;22.80;99.90;;;;;;4825499;29;20240;-66
2023/10/01 12:33:40;;;;;;;10.55;6.75;;;22.80;99.90;;;;;;4825480;29;20168;-66
2023/10/01 12:39:16;;;;;;;9.77;6.47;;;22.80;99.90;;;;;;4825483;29;20230;-67
2023/10/01 12:44:27;;;;;;;10.98;7.10;;;22.90;99.90;;;;;;4825573;29;20180;-66
2023/10/01 12:46:54;;;;;;;12.43;7.55;;;22.90;99.90;;;;;;4825334;29;20179;-66
2023/10/01 12:49:21;;;;;;;12.35;6.93;;;23.00;99.90;;;;;;4825147;29;20713;-66
2023/10/01 12:51:53;;;;;;;10.00;6.78;;;23.10;99.90;;;;;;4825123;29;20176;-66
2023/10/01 12:54:20;;;;;;;10.20;6.38;;;23.00;99.90;;;;;;4825145;29;20176;-65
2023/10/01 12:57:02;;;;;;;10.05;6.40;;;23.00;99.90;;;;;;4825080;29;20630;-65
2023/10/01 12:59:42;;;;;;;10.65;6.65;;;23.00;99.90;;;;;;4823910;29;20589;-67
2023/10/01 13:02:28;;;;;;;11.65;6.53;;;23.00;99.90;;;;;;4825162;29;20187;-67
2023/10/01 13:07:45;;;;;;;11.32;6.80;;;23.00;99.90;;;;;;4825283;29;20263;-66
2023/10/01 13:10:12;;;;;;;10.40;6.22;;;23.00;99.90;;;;;;4825119;29;20187;-65
2023/10/01 13:12:57;;;;;;;10.23;6.60;;;23.10;99.90;;;;;;4808525;29;20546;-66
2023/10/01 13:15:40;;;;;;;11.75;7.07;;;23.00;99.90;;;;;;4824778;29;20198;-65
2023/10/01 13:18:18;;;;;;;10.95;6.70;;;23.00;99.90;;;;;;4824970;29;20225;-65
2023/10/01 13:23:24;;;;;;;10.23;7.00;;;23.00;99.90;;;;;;4823349;29;20183;-63
2023/10/01 13:28:49;;;;;;;12.45;7.32;;;23.00;99.90;;;;;;4823090;29;20602;-64
2023/10/01 13:33:56;;;;;;;13.23;7.18;;;22.90;99.90;;;;;;4822553;29;20187;-63
2023/10/01 13:36:35;;;;;;;11.70;6.82;;;22.90;99.90;;;;;;4821954;29;20261;-61
2023/10/01 13:39:25;;;;;;;10.57;6.82;;;23.00;99.90;;;;;;4823024;29;20211;-64
2023/10/01 14:09:47;;;;;;;9.40;6.25;;;22.80;99.90;;;;;;4824482;29;20283;-64
2023/10/01 14:12:14;;;;;;;11.07;6.90;;;22.90;99.90;;;;;;4824335;29;20188;-64
2023/10/01 14:14:43;;;;;;;11.88;7.18;;;22.90;99.90;;;;;;4824331;29;20199;-64
2023/10/01 14:17:13;;;;;;;12.25;7.32;;;22.80;99.90;;;;;;4824199;29;20188;-64
2023/10/01 14:19:41;;;;;;;11.77;6.43;;;22.80;99.90;;;;;;4824007;29;20211;-64
2023/10/01 14:22:18;;;;;;;10.75;6.80;;;22.90;99.90;;;;;;4823917;29;20195;-64
2023/10/01 14:24:44;;;;;;;10.55;6.88;;;23.00;99.90;;;;;;4824403;29;20266;-65
2023/10/01 14:27:24;;;;;;;10.00;6.65;;;22.90;99.90;;;;;;4824084;29;20709;-63
2023/10/01 14:30:01;;;;;;;10.40;6.93;;;23.00;99.90;;;;;;4824226;29;20184;-64
2023/10/01 14:32:36;;;;;;;10.70;6.88;;;23.00;99.90;;;;;;4823934;29;20661;-65
2023/10/01 14:35:15;;;;;;;12.25;6.90;;;23.10;99.90;;;;;;4824410;29;20231;-64
2023/10/01 14:37:54;;;;;;;10.07;6.40;;;23.10;99.90;;;;;;4824339;29;20256;-65
2023/10/01 14:40:27;;;;;;;9.70;6.03;;;23.10;99.90;;;;;;4824147;29;20184;-64
2023/10/01 14:42:59;;;;;;;9.43;6.30;;;23.10;99.90;;;;;;4823829;29;20194;-64